Time;durP1;ratioP1;P1;durP2;ratioP2;P2;SDS_P1;SDS_P2;PMS_P1;PMS_P2;Temp;Humidity;BMP_temperature;BMP_pressure;BME280_temperature;BME280_humidity;BME280_pressure;Samples;Min_cycle;Max_cycle;Signal;HPM_P1;HPM_P2
2022/07/03 00:02:19;;;;;;;3.25;2.10;;;;;;;22.93;47.93;100056.50;4960081;28;20042;-78
2022/07/03 00:04:46;;;;;;;1.90;1.65;;;;;;;22.90;47.41;100062.34;4948523;28;20100;-78
2022/07/03 00:07:12;;;;;;;2.63;1.50;;;;;;;22.88;47.72;100064.44;4966751;28;20124;-78
2022/07/03 00:09:39;;;;;;;2.08;1.80;;;;;;;22.84;47.28;100070.47;4985431;28;20061;-87
2022/07/03 00:12:06;;;;;;;2.20;1.65;;;;;;;22.84;47.58;100063.19;4978188;28;20052;-87
2022/07/03 00:14:33;;;;;;;2.10;1.80;;;;;;;22.82;47.92;100065.28;4980220;28;20050;-78
2022/07/03 00:17:00;;;;;;;2.75;1.80;;;;;;;22.81;47.58;100068.19;4961705;28;20108;-78
2022/07/03 00:19:28;;;;;;;2.38;2.17;;;;;;;22.79;47.84;100072.97;4960537;28;20498;-89
2022/07/03 00:22:05;;;;;;;2.65;1.83;;;;;;;22.76;48.27;100069.66;4960670;28;20402;-88
2022/07/03 00:24:52;;;;;;;4.13;1.90;;;;;;;22.72;48.15;100068.41;4977863;28;20050;-88
2022/07/03 00:27:20;;;;;;;2.35;1.98;;;;;;;22.71;47.84;100072.16;4948445;28;20046;-88
2022/07/03 00:29:49;;;;;;;5.13;1.77;;;;;;;22.68;48.06;100071.75;4978948;28;20044;-88
2022/07/03 00:32:22;;;;;;;3.70;1.90;;;;;;;22.62;48.53;100072.56;4972154;28;20052;-87
2022/07/03 00:34:53;;;;;;;;;;;;;;;22.59;48.45;100070.28;4959772;28;20038;-88
2022/07/03 00:37:20;;;;;;;2.22;1.90;;;;;;;22.59;48.23;100075.69;4971590;28;19929;-88
2022/07/03 00:39:50;;;;;;;4.28;1.77;;;;;;;22.54;48.51;100071.75;4967423;28;20441;-88
2022/07/03 00:42:17;;;;;;;5.35;1.90;;;;;;;22.51;48.35;100069.44;4981746;28;20576;-88
2022/07/03 00:44:46;;;;;;;3.10;2.00;;;;;;;22.48;48.59;100069.88;4977381;28;20073;-88
2022/07/03 00:47:13;;;;;;;3.22;2.00;;;;;;;22.46;48.50;100074.66;4978100;28;20053;-88
2022/07/03 00:49:41;;;;;;;2.92;1.88;;;;;;;22.42;48.84;100064.47;5000026;28;20038;-78
2022/07/03 00:52:09;;;;;;;3.13;1.83;;;;;;;22.41;48.75;100069.03;4967769;28;20053;-88
2022/07/03 00:54:39;;;;;;;2.13;1.98;;;;;;;22.36;49.07;100074.22;4952418;28;20046;-78
2022/07/03 00:57:10;;;;;;;2.22;1.65;;;;;;;22.35;48.86;100077.16;4961540;28;20050;-78
2022/07/03 00:59:36;;;;;;;2.58;1.88;;;;;;;22.32;49.22;100073.81;4962453;28;20046;-79
2022/07/03 01:02:05;;;;;;;5.43;2.05;;;;;;;22.31;48.83;100074.88;4966195;28;20568;-78
2022/07/03 01:04:43;;;;;;;2.83;2.05;;;;;;;22.28;49.39;100077.97;4960101;28;20042;-78
2022/07/03 01:07:48;;;;;;;2.92;1.90;;;;;;;22.26;49.06;100068.38;4934531;28;20714;-87
2022/07/03 01:10:48;;;;;;;2.42;1.48;;;;;;;22.26;49.16;100076.50;4948806;28;20061;-78
2022/07/03 01:13:27;;;;;;;2.78;1.85;;;;;;;22.22;49.05;100076.09;4946876;28;20092;-79
2022/07/03 01:16:06;;;;;;;5.65;1.70;;;;;;;22.20;49.48;100072.75;4968338;28;20065;-78
2022/07/03 01:18:49;;;;;;;2.38;2.00;;;;;;;22.17;49.00;100070.44;4973142;28;20498;-88
2022/07/03 01:22:07;;;;;;;1.90;1.77;;;;;;;22.13;49.46;100071.88;4984703;28;20054;-89
2022/07/03 01:24:53;;;;;;;3.90;1.95;;;;;;;22.08;49.81;100079.78;4933294;28;20585;-88
2022/07/03 01:27:50;;;;;;;3.13;1.80;;;;;;;22.07;49.61;100070.84;4964337;28;20045;-88
2022/07/03 01:30:18;;;;;;;3.45;1.77;;;;;;;22.05;49.46;100070.19;4941010;28;20505;-88
2022/07/03 01:32:46;;;;;;;3.80;1.80;;;;;;;22.01;49.37;100062.72;4969852;28;20460;-87
2022/07/03 01:35:20;;;;;;;2.60;2.22;;;;;;;21.95;49.91;100068.94;4968251;28;20617;-87
2022/07/03 01:37:48;;;;;;;4.10;2.30;;;;;;;21.93;49.80;100063.75;4992539;28;20069;-87
2022/07/03 01:40:17;;;;;;;2.05;1.85;;;;;;;21.89;49.59;100052.50;4943728;28;20077;-87
2022/07/03 01:42:45;;;;;;;1.92;1.75;;;;;;;21.86;49.83;100054.78;4994392;28;20038;-78
2022/07/03 01:45:14;;;;;;;2.33;2.00;;;;;;;21.85;49.80;100061.22;4975852;28;20046;-87
2022/07/03 01:47:45;;;;;;;2.58;2.10;;;;;;;21.85;50.04;100063.91;4962240;28;20068;-83
2022/07/03 01:50:14;;;;;;;3.75;2.03;;;;;;;21.85;49.91;100058.50;4965205;28;20102;-86
2022/07/03 01:52:42;;;;;;;3.58;2.15;;;;;;;21.81;50.05;100058.09;4967214;28;20619;-87
2022/07/03 01:55:14;;;;;;;2.80;1.83;;;;;;;21.80;50.00;100061.81;4961288;28;20080;-84
2022/07/03 01:57:43;;;;;;;3.20;2.22;;;;;;;21.77;50.00;100059.53;4985009;28;20084;-88
2022/07/03 02:00:16;;;;;;;2.35;2.13;;;;;;;21.75;50.40;100060.75;4981293;28;20049;-88
2022/07/03 02:02:49;;;;;;;2.67;1.58;;;;;;;21.73;50.25;100052.03;4972695;28;20064;-89
2022/07/03 02:05:38;;;;;;;1.63;1.52;;;;;;;21.72;50.47;100044.97;4950336;28;20052;-87
2022/07/03 02:08:05;;;;;;;4.03;2.05;;;;;;;21.71;50.10;100048.72;4927567;28;20066;-86
2022/07/03 02:10:37;;;;;;;2.20;1.83;;;;;;;21.68;50.14;100044.53;4990218;28;20051;-87
2022/07/03 02:13:15;;;;;;;3.37;2.10;;;;;;;21.64;50.46;100046.81;4958341;28;20050;-87
2022/07/03 02:15:43;;;;;;;2.25;2.05;;;;;;;21.64;50.49;100054.09;4925704;28;20053;-87
2022/07/03 02:18:21;;;;;;;1.88;1.73;;;;;;;21.61;50.47;100046.38;4969434;28;20073;-87
2022/07/03 02:21:12;;;;;;;2.85;1.85;;;;;;;21.59;50.66;100048.44;4953279;28;20057;-78
2022/07/03 02:24:16;;;;;;;2.42;1.70;;;;;;;21.52;50.92;100056.53;4936928;28;20042;-78
2022/07/03 02:26:49;;;;;;;3.35;2.05;;;;;;;21.52;50.45;100058.41;4951058;28;20764;-78
2022/07/03 02:29:17;;;;;;;2.20;2.03;;;;;;;21.52;50.50;100053.00;4943516;28;20049;-81
2022/07/03 02:31:46;;;;;;;2.28;2.08;;;;;;;21.50;50.46;100046.94;4970771;28;20127;-78
2022/07/03 02:34:15;;;;;;;5.60;2.00;;;;;;;;;;4947644;28;20505;-78
2022/07/03 02:36:45;;;;;;;2.47;1.88;;;;;;;21.44;50.56;100054.00;4979072;28;20044;-78
2022/07/03 02:39:18;;;;;;;4.10;2.10;;;;;;;21.42;50.91;100058.75;4974105;28;20054;-78
2022/07/03 02:41:53;;;;;;;2.22;2.03;;;;;;;21.40;50.79;100053.59;4975758;28;20057;-78
2022/07/03 02:44:46;;;;;;;2.17;1.75;;;;;;;21.35;51.15;100050.63;4952161;28;20046;-79
2022/07/03 02:47:29;;;;;;;2.17;1.98;;;;;;;21.37;51.09;100059.34;4952564;28;20049;-78
2022/07/03 02:50:05;;;;;;;3.83;1.92;;;;;;;21.34;51.07;100054.34;4960803;28;20074;-78
2022/07/03 02:52:37;;;;;;;3.05;2.00;;;;;;;21.32;50.85;100055.56;4932860;28;20048;-78
2022/07/03 02:55:44;;;;;;;2.83;1.88;;;;;;;21.28;51.12;100055.16;4998071;28;20663;-78
2022/07/03 02:58:42;;;;;;;2.30;1.88;;;;;;;21.24;51.06;100059.28;4948586;28;20149;-79
2022/07/03 03:01:34;;;;;;;4.90;1.95;;;;;;;21.24;50.91;100062.84;4974843;28;20049;-78
2022/07/03 03:04:08;;;;;;;3.03;2.10;;;;;;;21.20;51.06;100066.94;4970884;28;20100;-78
2022/07/03 03:06:37;;;;;;;2.13;1.98;;;;;;;21.16;50.83;100065.66;4978157;28;20045;-87
2022/07/03 03:09:04;;;;;;;2.50;2.28;;;;;;;21.12;50.87;100067.13;4987175;28;20050;-87
2022/07/03 03:11:45;;;;;;;4.00;2.10;;;;;;;21.05;51.26;100068.94;4987647;28;20105;-79
2022/07/03 03:14:14;;;;;;;2.05;1.95;;;;;;;21.05;51.07;100063.53;4985788;28;20223;-78
2022/07/03 03:16:51;;;;;;;3.45;2.10;;;;;;;21.00;51.21;100069.53;4984588;28;20470;-86
2022/07/03 03:19:22;;;;;;;2.83;1.75;;;;;;;21.00;51.22;100071.41;4934781;28;20164;-87
2022/07/03 03:22:17;;;;;;;2.17;1.90;;;;;;;20.99;51.44;100080.53;4993101;28;20046;-86
2022/07/03 03:24:43;;;;;;;5.32;2.17;;;;;;;20.99;51.16;100083.25;4945960;28;20041;-82
2022/07/03 03:27:10;;;;;;;4.63;2.00;;;;;;;20.96;51.17;100079.06;4962735;28;20061;-86
2022/07/03 03:29:38;;;;;;;2.20;1.90;;;;;;;20.93;51.15;100078.63;4961528;28;20043;-88
2022/07/03 03:32:05;;;;;;;2.75;2.08;;;;;;;20.90;51.35;100084.41;4973563;28;20059;-87
2022/07/03 03:34:32;;;;;;;2.35;2.10;;;;;;;20.90;51.51;100090.63;4967350;28;20497;-78
2022/07/03 03:37:00;;;;;;;2.95;2.10;;;;;;;20.86;51.71;100092.06;4961582;28;20104;-78
2022/07/03 03:39:27;;;;;;;4.47;1.80;;;;;;;20.86;51.37;100089.34;4971916;28;20052;-78
2022/07/03 03:41:54;;;;;;;2.20;2.00;;;;;;;20.84;51.62;100098.69;4952294;28;20069;-78
2022/07/03 03:44:21;;;;;;;3.28;1.90;;;;;;;20.82;51.61;100096.19;4943053;28;20046;-78
2022/07/03 03:46:49;;;;;;;3.38;1.98;;;;;;;20.86;51.67;100091.22;4960980;28;20052;-78
2022/07/03 03:49:16;;;;;;;4.10;2.10;;;;;;;21.20;51.87;100090.44;4963716;28;20092;-78
2022/07/03 03:51:43;;;;;;;4.25;1.70;;;;;;;21.76;51.30;100095.72;4977688;28;20104;-78
2022/07/03 03:54:10;;;;;;;1.98;1.85;;;;;;;22.15;50.50;100102.25;4951260;28;20042;-78
2022/07/03 03:56:37;;;;;;;2.72;1.83;;;;;;;22.36;49.97;100106.69;4935928;28;20958;-79
2022/07/03 03:59:04;;;;;;;2.65;1.90;;;;;;;22.46;49.48;100106.28;4979342;28;20061;-79
2022/07/03 04:01:30;;;;;;;3.35;2.00;;;;;;;22.51;49.04;100115.44;4981164;28;20065;-87
2022/07/03 04:03:59;;;;;;;7.53;1.98;;;;;;;22.52;48.83;100113.59;4995512;28;20461;-87
2022/07/03 04:06:26;;;;;;;3.38;2.03;;;;;;;22.55;48.81;100113.19;4998941;28;20090;-87
2022/07/03 04:08:53;;;;;;;3.35;2.10;;;;;;;22.58;48.71;100120.06;4980115;28;20034;-88
2022/07/03 04:11:19;;;;;;;3.88;1.80;;;;;;;22.56;48.32;100116.72;4962614;28;20050;-87
2022/07/03 04:13:46;;;;;;;3.85;2.10;;;;;;;22.51;48.39;100120.03;4981065;28;20712;-78
2022/07/03 04:16:13;;;;;;;6.78;2.28;;;;;;;22.51;48.52;100117.31;4949579;28;20590;-89
2022/07/03 04:18:39;;;;;;;5.00;2.10;;;;;;;22.56;48.66;100122.94;4996016;28;20045;-88
2022/07/03 04:21:06;;;;;;;3.15;2.30;;;;;;;22.61;48.33;100127.75;4985873;28;20038;-89
2022/07/03 04:23:33;;;;;;;2.80;2.20;;;;;;;22.58;48.27;100123.59;4976139;28;20042;-89
2022/07/03 04:26:06;;;;;;;2.45;2.13;;;;;;;22.57;47.95;100123.78;4976545;28;20100;-89
2022/07/03 04:28:41;;;;;;;2.97;1.98;;;;;;;22.63;48.23;100121.09;4953100;28;20049;-88
2022/07/03 04:31:07;;;;;;;2.72;2.17;;;;;;;22.66;48.21;100117.97;4970082;28;20068;-87
2022/07/03 04:33:34;;;;;;;2.00;1.90;;;;;;;22.69;48.13;100114.84;4969102;28;20062;-86
2022/07/03 04:36:01;;;;;;;3.65;2.10;;;;;;;22.72;48.08;100119.84;4980403;28;20391;-79
2022/07/03 04:38:27;;;;;;;2.33;1.92;;;;;;;22.73;47.91;100118.81;4984785;28;20060;-86
2022/07/03 04:40:54;;;;;;;2.88;2.35;;;;;;;22.75;47.60;100119.44;4977523;28;20046;-88
2022/07/03 04:43:21;;;;;;;5.57;2.00;;;;;;;22.81;48.05;100117.75;4994806;28;20446;-87
2022/07/03 04:45:47;;;;;;;2.42;2.10;;;;;;;22.85;47.76;100120.91;4994094;28;20453;-88
2022/07/03 04:48:14;;;;;;;3.90;2.15;;;;;;;22.94;47.86;100122.34;4978490;28;20497;-86
2022/07/03 04:50:41;;;;;;;2.20;2.00;;;;;;;22.96;47.26;100128.38;4978816;28;20034;-89
2022/07/03 04:53:09;;;;;;;1.60;1.50;;;;;;;22.93;47.50;100128.81;4959280;28;20039;-88
2022/07/03 04:55:35;;;;;;;4.03;2.33;;;;;;;22.91;47.77;100130.88;4979874;28;20688;-88
2022/07/03 04:58:02;;;;;;;3.33;2.10;;;;;;;22.86;47.74;100123.38;4977946;28;20050;-88
2022/07/03 05:00:29;;;;;;;4.70;2.30;;;;;;;22.81;48.05;100128.59;4971126;28;20050;-78
2022/07/03 05:02:56;;;;;;;4.00;2.05;;;;;;;22.70;47.67;100129.22;4968543;28;20540;-79
2022/07/03 05:05:23;;;;;;;2.55;2.05;;;;;;;22.57;47.68;100131.91;4966654;28;20066;-79
2022/07/03 05:07:50;;;;;;;2.70;1.75;;;;;;;22.43;48.14;100133.78;4979593;28;20066;-79
2022/07/03 05:10:17;;;;;;;4.57;2.40;;;;;;;22.39;48.29;100136.06;4961898;28;20050;-78
2022/07/03 05:12:43;;;;;;;3.05;2.58;;;;;;;22.33;48.57;100140.41;4966329;28;20104;-78
2022/07/03 05:15:10;;;;;;;2.92;2.30;;;;;;;22.28;48.72;100148.31;4961643;28;20057;-78
2022/07/03 05:17:37;;;;;;;2.20;1.98;;;;;;;22.24;48.86;100140.81;4982806;28;20756;-79
2022/07/03 05:22:51;;;;;;;2.42;1.85;;;;;;;22.09;49.20;100138.25;4966356;28;20045;-79
2022/07/03 05:25:17;;;;;;;3.47;2.05;;;;;;;22.09;49.45;100135.53;4965667;28;20580;-89
2022/07/03 05:27:44;;;;;;;2.78;2.33;;;;;;;22.07;49.45;100137.63;4979369;28;20675;-89
2022/07/03 05:30:11;;;;;;;2.90;2.35;;;;;;;22.01;49.50;100141.16;4951256;28;20046;-88
2022/07/03 05:32:38;;;;;;;2.92;2.42;;;;;;;22.00;49.42;100139.47;4978697;28;20053;-78
2022/07/03 05:35:06;;;;;;;2.80;2.20;;;;;;;21.96;49.90;100139.03;4975948;28;20041;-86
2022/07/03 05:37:32;;;;;;;1.98;1.85;;;;;;;21.96;49.94;100139.03;4961631;28;20073;-87
2022/07/03 05:39:59;;;;;;;3.28;2.20;;;;;;;21.94;49.81;100134.88;4966076;28;20700;-87
2022/07/03 05:42:26;;;;;;;4.25;2.28;;;;;;;21.96;49.87;100133.63;4984684;28;20572;-87
2022/07/03 05:44:53;;;;;;;4.60;2.15;;;;;;;21.98;50.09;100134.28;4961632;28;20049;-86
2022/07/03 05:47:19;;;;;;;3.22;2.30;;;;;;;22.00;49.80;100134.03;4962138;28;20054;-87
2022/07/03 05:49:47;;;;;;;2.25;2.15;;;;;;;22.01;50.22;100138.44;4982138;28;20045;-87
2022/07/03 05:52:14;;;;;;;2.85;2.30;;;;;;;22.00;50.23;100137.59;4980293;28;20038;-87
2022/07/03 05:54:40;;;;;;;2.70;2.33;;;;;;;21.99;50.47;100121.56;4990086;28;20053;-78
2022/07/03 05:57:07;;;;;;;4.75;2.45;;;;;;;22.00;50.33;100126.75;4965970;28;20046;-88
2022/07/03 05:59:34;;;;;;;2.20;2.10;;;;;;;22.04;50.78;100122.63;4985959;28;20053;-85
2022/07/03 06:02:01;;;;;;;3.45;2.33;;;;;;;22.04;50.79;100121.81;4982992;28;20049;-88
2022/07/03 06:04:29;;;;;;;2.30;2.10;;;;;;;22.06;50.59;100125.97;4975928;28;20042;-89
2022/07/03 06:06:57;;;;;;;2.40;2.20;;;;;;;22.08;50.57;100125.75;4973872;28;20069;-86
2022/07/03 06:09:23;;;;;;;4.10;2.22;;;;;;;22.10;50.66;100132.63;4966166;28;20493;-78
2022/07/03 06:11:52;;;;;;;3.42;2.22;;;;;;;22.10;50.95;100135.31;5004833;28;20046;-87
2022/07/03 06:14:19;;;;;;;2.42;2.05;;;;;;;22.16;51.28;100139.09;4979471;28;20038;-88
2022/07/03 06:16:47;;;;;;;3.15;2.15;;;;;;;22.21;51.76;100138.50;4965760;28;20704;-88
2022/07/03 06:19:14;;;;;;;2.40;2.20;;;;;;;22.26;51.39;100134.16;5001737;28;20726;-88
2022/07/03 06:21:40;;;;;;;2.30;2.10;;;;;;;22.28;51.43;100134.78;4957506;28;20358;-87
2022/07/03 06:24:12;;;;;;;2.63;2.03;;;;;;;22.33;51.91;100137.69;4995687;28;20050;-87
2022/07/03 06:26:39;;;;;;;4.53;2.33;;;;;;;22.35;51.10;100134.78;4993491;28;20046;-87
2022/07/03 06:29:06;;;;;;;2.13;1.92;;;;;;;22.28;50.59;100132.06;4973078;28;20061;-87
2022/07/03 06:31:37;;;;;;;5.45;2.55;;;;;;;22.29;50.76;100132.94;4946654;28;20042;-89
2022/07/03 06:34:05;;;;;;;2.30;2.10;;;;;;;22.32;50.47;100141.44;4981628;28;20441;-89
2022/07/03 06:36:31;;;;;;;4.00;2.20;;;;;;;22.36;50.76;100133.75;4962531;28;20049;-88
2022/07/03 06:38:59;;;;;;;2.40;2.20;;;;;;;22.38;50.98;100134.38;4980623;28;20061;-88
2022/07/03 06:41:26;;;;;;;4.43;2.03;;;;;;;22.39;50.61;100121.69;4985815;28;20504;-83
2022/07/03 06:43:53;;;;;;;3.30;2.00;;;;;;;22.46;50.65;100131.47;4963601;28;20050;-84
2022/07/03 06:46:20;;;;;;;5.70;2.35;;;;;;;22.42;50.64;100126.72;4958600;28;20042;-81
2022/07/03 06:48:47;;;;;;;2.70;2.50;;;;;;;22.40;50.91;100132.31;4971688;28;20056;-81
2022/07/03 06:51:14;;;;;;;4.35;2.00;;;;;;;22.40;51.26;100128.78;4978727;28;20048;-81
2022/07/03 06:53:44;;;;;;;3.33;2.15;;;;;;;22.39;51.60;100132.50;4986749;28;20046;-81
2022/07/03 06:56:11;;;;;;;2.20;2.00;;;;;;;22.46;51.63;100126.06;4959373;28;20516;-81
2022/07/03 06:58:37;;;;;;;4.15;1.95;;;;;;;22.52;51.30;100138.78;4981470;28;20497;-81
2022/07/03 07:01:04;;;;;;;3.25;2.13;;;;;;;22.63;51.52;100134.63;4962604;28;20039;-82
2022/07/03 07:03:31;;;;;;;3.88;2.05;;;;;;;22.64;52.03;100136.28;4980076;28;20052;-81
2022/07/03 07:05:59;;;;;;;3.88;2.35;;;;;;;22.69;51.59;100138.38;4982395;28;20224;-81
2022/07/03 07:08:25;;;;;;;4.70;2.38;;;;;;;22.71;51.93;100141.72;4986417;28;20042;-81
2022/07/03 07:10:52;;;;;;;4.35;2.03;;;;;;;22.71;51.91;100145.25;4964232;28;20046;-81
2022/07/03 07:13:19;;;;;;;2.33;2.13;;;;;;;22.74;52.52;100147.56;4984838;28;20079;-88
2022/07/03 07:15:45;;;;;;;2.17;1.98;;;;;;;22.76;52.36;100139.22;4973754;28;20053;-82
2022/07/03 07:18:12;;;;;;;3.42;2.00;;;;;;;22.83;52.29;100140.03;4982672;28;20057;-82
2022/07/03 07:20:40;;;;;;;2.45;2.25;;;;;;;22.79;52.56;100133.38;4963437;28;20517;-81
2022/07/03 07:23:08;;;;;;;2.88;2.20;;;;;;;22.85;52.62;100137.16;4963895;28;20034;-82
2022/07/03 07:25:35;;;;;;;3.13;2.55;;;;;;;22.87;53.30;100132.31;4978229;28;20517;-82
2022/07/03 07:28:09;;;;;;;3.28;2.17;;;;;;;22.92;53.60;100140.66;4985395;28;20042;-82
2022/07/03 07:30:38;;;;;;;2.53;2.33;;;;;;;22.94;53.46;100130.47;4980482;28;20045;-82
2022/07/03 07:33:06;;;;;;;4.85;2.42;;;;;;;22.95;53.81;100143.81;4966483;28;20401;-82
2022/07/03 07:35:32;;;;;;;3.75;2.33;;;;;;;23.04;53.36;100130.06;4953400;28;20504;-82
2022/07/03 07:37:59;;;;;;;6.03;2.20;;;;;;;23.09;53.55;100124.84;4978205;28;20046;-82
2022/07/03 07:40:33;;;;;;;4.95;2.03;;;;;;;23.15;53.65;100118.56;4931387;28;20588;-82
2022/07/03 07:43:00;;;;;;;2.33;1.90;;;;;;;23.28;53.55;100118.56;4988009;28;20049;-82
2022/07/03 07:45:27;;;;;;;5.28;2.60;;;;;;;23.31;53.96;100104.59;4971420;28;20038;-89
2022/07/03 07:47:53;;;;;;;3.70;2.22;;;;;;;23.46;53.67;100114.34;4984122;28;20104;-90
2022/07/03 07:50:24;;;;;;;2.42;2.30;;;;;;;23.59;52.71;100119.75;4986978;28;20054;-88
2022/07/03 07:52:51;;;;;;;3.10;2.05;;;;;;;23.65;52.13;100123.47;4981691;28;20053;-82
2022/07/03 07:55:18;;;;;;;4.80;2.30;;;;;;;23.68;52.27;100113.00;4977386;28;20058;-81
2022/07/03 07:57:45;;;;;;;2.05;1.85;;;;;;;23.68;52.15;100113.00;4971023;28;20493;-82
2022/07/03 08:00:14;;;;;;;2.72;1.98;;;;;;;23.79;52.10;100114.28;4970410;28;20057;-82
2022/07/03 08:05:35;;;;;;;2.05;1.50;;;;;;;23.85;50.49;100110.69;4949698;28;20508;-82
2022/07/03 08:08:13;;;;;;;1.85;1.75;;;;;;;23.85;50.23;100112.56;4952471;28;20050;-85
2022/07/03 08:10:48;;;;;;;2.47;2.13;;;;;;;23.92;50.96;100113.38;4971006;28;20049;-91
2022/07/03 08:13:16;;;;;;;2.20;1.90;;;;;;;24.03;50.71;100099.13;4984455;28;20049;-89
2022/07/03 08:15:44;;;;;;;2.25;1.73;;;;;;;24.09;50.07;100108.25;4976819;28;20085;-88
2022/07/03 08:18:13;;;;;;;2.00;1.80;;;;;;;24.16;50.34;100107.16;4978912;28;20050;-88
2022/07/03 08:20:40;;;;;;;2.65;1.60;;;;;;;24.11;50.17;100108.88;4968155;28;20046;-89
2022/07/03 08:23:07;;;;;;;1.80;1.70;;;;;;;24.17;50.74;100108.00;4968142;28;20038;-89
2022/07/03 08:25:33;;;;;;;2.22;1.88;;;;;;;24.26;50.03;100109.41;4976318;28;20088;-87
2022/07/03 08:28:00;;;;;;;3.05;1.92;;;;;;;24.28;49.63;100104.59;4964526;28;20422;-89
2022/07/03 08:30:27;;;;;;;2.83;1.98;;;;;;;24.31;49.94;100106.03;4982644;28;20043;-88
2022/07/03 08:32:56;;;;;;;1.75;1.58;;;;;;;24.31;50.12;100104.16;4985324;28;20423;-89
2022/07/03 08:35:23;;;;;;;2.03;1.80;;;;;;;24.35;49.73;100102.69;4962520;28;20045;-90
2022/07/03 08:37:50;;;;;;;2.10;1.80;;;;;;;24.43;49.70;100101.56;4967545;28;20112;-88
2022/07/03 08:40:19;;;;;;;1.70;1.60;;;;;;;24.47;48.77;100098.25;4987643;28;20045;-88
2022/07/03 08:42:54;;;;;;;4.95;1.90;;;;;;;24.51;48.52;100090.47;4960182;28;20046;-89
2022/07/03 08:45:23;;;;;;;1.63;1.52;;;;;;;24.53;48.42;100093.81;4958807;28;20502;-82
2022/07/03 08:47:53;;;;;;;1.67;1.50;;;;;;;24.51;47.82;100093.19;4969700;28;20104;-82
2022/07/03 08:50:20;;;;;;;3.67;1.80;;;;;;;24.56;48.16;100085.22;4969785;28;20430;-82
2022/07/03 08:52:47;;;;;;;1.58;1.48;;;;;;;24.55;47.64;100086.28;4977129;28;20046;-82
2022/07/03 08:55:15;;;;;;;3.10;1.48;;;;;;;24.55;48.60;100089.00;4963998;28;20478;-80
2022/07/03 08:57:43;;;;;;;3.25;1.50;;;;;;;24.59;47.41;100090.19;4980825;28;20038;-82
2022/07/03 09:00:12;;;;;;;3.60;1.80;;;;;;;24.66;48.13;100085.53;4962369;28;20490;-82
2022/07/03 09:02:41;;;;;;;2.40;1.70;;;;;;;24.67;47.79;100087.19;4968273;28;20739;-82
2022/07/03 09:05:09;;;;;;;1.85;1.50;;;;;;;24.71;48.09;100089.50;4983109;28;20054;-89
2022/07/03 09:07:37;;;;;;;2.17;1.52;;;;;;;24.83;46.75;100091.25;4984993;28;20097;-88
2022/07/03 09:10:07;;;;;;;2.70;1.50;;;;;;;24.82;46.58;100088.75;4969735;28;20053;-90
2022/07/03 09:12:34;;;;;;;2.90;1.50;;;;;;;24.85;46.59;100083.69;4952969;28;20049;-90
2022/07/03 09:15:04;;;;;;;2.63;1.58;;;;;;;24.85;46.44;100070.09;4982533;28;20050;-86
2022/07/03 09:17:31;;;;;;;1.75;1.50;;;;;;;24.90;46.03;100074.88;4991139;28;20042;-89
2022/07/03 09:19:59;;;;;;;1.85;1.27;;;;;;;24.92;45.55;100081.75;4967606;28;20078;-89
2022/07/03 09:22:31;;;;;;;1.50;1.40;;;;;;;24.96;45.51;100075.84;4972149;28;20165;-89
2022/07/03 09:25:07;;;;;;;1.40;1.30;;;;;;;24.96;44.06;100073.13;4985253;28;20050;-87
2022/07/03 09:27:34;;;;;;;1.48;1.38;;;;;;;24.97;45.60;100075.66;4992571;28;20125;-87
2022/07/03 09:30:08;;;;;;;1.45;1.35;;;;;;;24.96;44.88;100070.44;4952034;28;20046;-88
2022/07/03 09:32:38;;;;;;;2.17;1.50;;;;;;;25.01;45.60;100067.88;4977506;28;20046;-88
2022/07/03 09:35:24;;;;;;;5.90;1.55;;;;;;;25.00;44.75;100072.47;4994080;28;20110;-87
2022/07/03 09:37:58;;;;;;;1.77;1.33;;;;;;;25.03;45.48;100074.75;4962731;28;20058;-88
2022/07/03 09:40:30;;;;;;;2.45;1.60;;;;;;;25.04;45.44;100076.41;4970026;28;20054;-83
2022/07/03 09:43:06;;;;;;;2.47;1.30;;;;;;;25.14;44.41;100075.91;4958579;28;20405;-82
2022/07/03 09:45:49;;;;;;;1.90;1.42;;;;;;;25.22;43.66;100061.22;4977689;28;20041;-88
2022/07/03 09:48:21;;;;;;;1.30;1.17;;;;;;;25.26;43.79;100060.50;4963245;28;20509;-81
2022/07/03 09:51:12;;;;;;;1.52;1.42;;;;;;;25.22;44.17;100064.75;4983196;28;20148;-82
2022/07/03 09:53:46;;;;;;;1.48;1.30;;;;;;;25.24;43.52;100067.22;4997275;28;20046;-82
2022/07/03 09:56:19;;;;;;;6.18;1.60;;;;;;;25.41;43.43;100059.31;4982972;28;20044;-80
2022/07/03 09:59:04;;;;;;;2.50;1.15;;;;;;;25.40;42.52;100055.78;4984008;28;20085;-81
2022/07/03 10:01:31;;;;;;;2.22;1.08;;;;;;;25.42;41.82;100050.13;4956723;28;20042;-86
2022/07/03 10:04:14;;;;;;;4.50;1.50;;;;;;;25.37;40.99;100053.50;4962268;28;20508;-86
2022/07/03 10:06:52;;;;;;;1.35;1.17;;;;;;;25.39;41.70;100061.41;4960584;28;20047;-86
2022/07/03 10:09:30;;;;;;;3.00;1.30;;;;;;;25.46;42.13;100056.72;4974440;28;20409;-87
2022/07/03 10:11:57;;;;;;;3.08;1.30;;;;;;;25.50;42.18;100066.09;4979357;28;20038;-81
2022/07/03 10:14:26;;;;;;;2.88;1.27;;;;;;;25.50;41.76;100052.50;4982080;28;20050;-81
2022/07/03 10:16:57;;;;;;;1.25;1.15;;;;;;;25.51;41.68;100056.88;4979835;28;20038;-82
2022/07/03 10:19:26;;;;;;;1.63;1.10;;;;;;;25.49;40.76;100059.00;4977651;28;20046;-82
2022/07/03 10:21:58;;;;;;;1.98;1.10;;;;;;;25.59;41.29;100048.41;4969294;28;20050;-83
2022/07/03 10:24:29;;;;;;;2.00;1.30;;;;;;;25.58;41.64;100057.63;4973959;28;20108;-82
2022/07/03 10:26:57;;;;;;;2.15;1.20;;;;;;;25.56;41.30;100054.31;4975175;28;20055;-83
2022/07/03 10:29:26;;;;;;;1.77;1.30;;;;;;;25.58;40.59;100049.47;4963896;28;20046;-83
2022/07/03 10:31:56;;;;;;;1.98;1.23;;;;;;;25.52;41.65;100040.34;4984784;28;20168;-89
2022/07/03 10:34:26;;;;;;;5.95;1.50;;;;;;;25.53;41.62;100047.44;4995403;28;20394;-88
2022/07/03 10:37:03;;;;;;;3.97;1.42;;;;;;;25.63;41.24;100046.91;4982350;28;20149;-80
2022/07/03 10:39:37;;;;;;;1.85;1.30;;;;;;;25.66;40.59;100043.72;4946201;28;20064;-81
2022/07/03 10:46:04;;;;;;;1.38;1.10;;;;;;;25.83;39.48;100049.34;4953925;28;20045;-88
2022/07/03 10:48:57;;;;;;;3.63;1.42;;;;;;;25.70;39.60;100046.81;4935964;28;20050;-88
2022/07/03 10:51:24;;;;;;;;;;;;;;;25.69;39.85;100047.88;4934058;28;20042;-82
2022/07/03 10:54:26;;;;;;;1.27;1.13;;;;;;;25.67;39.49;100041.81;4982229;28;19988;-85
2022/07/03 10:57:47;;;;;;;1.45;1.35;;;;;;;25.72;40.49;100041.97;4991921;28;20100;-84
2022/07/03 11:04:56;;;;;;;2.15;1.33;;;;;;;25.84;40.35;100036.56;4974416;28;20117;-84
2022/07/03 11:07:35;;;;;;;4.25;1.67;;;;;;;25.83;40.71;100037.66;4985964;28;20100;-83
2022/07/03 11:14:45;;;;;;;3.15;1.48;;;;;;;25.97;40.30;100022.81;4988892;28;20041;-85
2022/07/03 11:17:21;;;;;;;1.60;1.33;;;;;;;25.82;38.92;100038.69;4942753;28;20084;-85
2022/07/03 11:22:43;;;;;;;2.88;1.70;;;;;;;25.97;39.32;100018.19;4968028;28;20050;-85
2022/07/03 11:25:10;;;;;;;1.20;1.10;;;;;;;25.95;40.82;100011.31;4986236;28;20065;-85
2022/07/03 11:27:38;;;;;;;1.60;1.50;;;;;;;25.98;41.01;100016.31;4958038;28;20046;-85
2022/07/03 11:30:05;;;;;;;1.30;1.20;;;;;;;26.11;40.75;100018.00;4964232;28;20045;-88
2022/07/03 11:32:46;;;;;;;3.40;1.35;;;;;;;26.05;39.93;100014.31;4960126;28;20061;-87
2022/07/03 11:35:46;;;;;;;2.03;1.50;;;;;;;26.08;39.94;100002.97;4983128;28;20207;-87
2022/07/03 11:38:16;;;;;;;2.25;1.30;;;;;;;26.12;38.87;100011.47;4905061;28;20076;-84
2022/07/03 11:40:44;;;;;;;1.55;1.15;;;;;;;26.16;39.47;100005.34;4978800;28;20038;-84
2022/07/03 11:43:12;;;;;;;1.70;1.10;;;;;;;26.20;38.80;100006.56;4992006;28;20050;-84
2022/07/03 11:45:49;;;;;;;2.38;1.33;;;;;;;26.27;38.70;100005.59;4967490;28;20538;-83
2022/07/03 11:48:18;;;;;;;1.98;1.10;;;;;;;26.22;38.46;100009.03;4970568;28;20048;-83
2022/07/03 11:50:46;;;;;;;1.95;1.02;;;;;;;26.30;38.60;100002.41;4986789;28;20046;-84
2022/07/03 11:53:24;;;;;;;2.22;1.00;;;;;;;26.26;37.75;99998.50;4970189;28;20054;-82
2022/07/03 11:55:57;;;;;;;2.50;1.20;;;;;;;26.27;37.50;100000.16;4997923;28;20042;-84
2022/07/03 11:58:25;;;;;;;2.65;1.25;;;;;;;26.28;37.43;99999.06;4968095;28;20104;-82
2022/07/03 12:00:54;;;;;;;2.40;1.08;;;;;;;26.33;38.11;99991.03;4968551;28;20136;-84
2022/07/03 12:03:22;;;;;;;3.78;1.50;;;;;;;26.37;38.45;99989.50;4950882;28;20120;-84
2022/07/03 12:05:55;;;;;;;3.00;1.20;;;;;;;26.41;38.94;99990.72;4984158;28;20123;-83
2022/07/03 12:08:23;;;;;;;2.70;1.10;;;;;;;26.48;38.54;99991.41;4968374;28;20097;-86